sensor_id;sensor_type;location;lat;lon;timestamp;pressure;altitude;pressure_sealevel;temperature;humidity
75401;BME280;63974;47.538;18.972;2023-02-24T00:01:11;100031.13;;;9.30;62.96
75401;BME280;63974;47.538;18.972;2023-02-24T00:04:16;100038.31;;;9.04;63.20
75401;BME280;63974;47.538;18.972;2023-02-24T00:07:19;100029.97;;;8.86;63.63
75401;BME280;63974;47.538;18.972;2023-02-24T00:10:22;100029.81;;;8.56;64.57
75401;BME280;63974;47.538;18.972;2023-02-24T00:13:25;100028.03;;;8.57;64.32
75401;BME280;63974;47.538;18.972;2023-02-24T00:16:28;100017.00;;;8.78;63.82
75401;BME280;63974;47.538;18.972;2023-02-24T00:19:31;100016.81;;;8.96;63.85
75401;BME280;63974;47.538;18.972;2023-02-24T00:22:34;100012.13;;;8.99;63.22
75401;BME280;63974;47.538;18.972;2023-02-24T00:25:36;100014.09;;;8.97;63.22
75401;BME280;63974;47.538;18.972;2023-02-24T00:28:40;100005.34;;;8.90;63.16
75401;BME280;63974;47.538;18.972;2023-02-24T00:31:43;100001.78;;;8.91;63.28
75401;BME280;63974;47.538;18.972;2023-02-24T00:34:47;99999.69;;;8.87;62.33
75401;BME280;63974;47.538;18.972;2023-02-24T00:37:51;100000.06;;;8.68;63.79
75401;BME280;63974;47.538;18.972;2023-02-24T00:40:55;99993.09;;;8.29;65.11
75401;BME280;63974;47.538;18.972;2023-02-24T00:44:03;99991.97;;;8.39;65.31
75401;BME280;63974;47.538;18.972;2023-02-24T00:47:10;99990.84;;;8.42;65.50
75401;BME280;63974;47.538;18.972;2023-02-24T00:50:14;99983.22;;;8.16;65.91
75401;BME280;63974;47.538;18.972;2023-02-24T00:53:18;99976.63;;;8.46;66.01
75401;BME280;63974;47.538;18.972;2023-02-24T00:56:21;99978.38;;;8.37;65.74
75401;BME280;63974;47.538;18.972;2023-02-24T00:59:24;99974.34;;;8.51;65.80
75401;BME280;63974;47.538;18.972;2023-02-24T01:02:28;99968.22;;;8.60;64.97
75401;BME280;63974;47.538;18.972;2023-02-24T01:05:34;99963.34;;;8.57;64.11
75401;BME280;63974;47.538;18.972;2023-02-24T01:08:38;99969.63;;;8.62;65.13
75401;BME280;63974;47.538;18.972;2023-02-24T01:11:45;99962.53;;;8.56;64.76
75401;BME280;63974;47.538;18.972;2023-02-24T01:15:07;99960.44;;;8.60;64.29
75401;BME280;63974;47.538;18.972;2023-02-24T01:18:13;99954.63;;;8.58;64.83
75401;BME280;63974;47.538;18.972;2023-02-24T01:21:18;99954.59;;;8.66;64.77
75401;BME280;63974;47.538;18.972;2023-02-24T01:24:21;99945.72;;;8.60;65.54
75401;BME280;63974;47.538;18.972;2023-02-24T01:27:25;99943.31;;;8.59;65.97
75401;BME280;63974;47.538;18.972;2023-02-24T01:30:28;99935.84;;;8.56;65.65
75401;BME280;63974;47.538;18.972;2023-02-24T01:33:33;99947.00;;;8.48;66.11
75401;BME280;63974;47.538;18.972;2023-02-24T01:36:40;99942.50;;;8.42;65.90
75401;BME280;63974;47.538;18.972;2023-02-24T01:39:46;99934.09;;;8.08;66.99
75401;BME280;63974;47.538;18.972;2023-02-24T01:42:49;99934.59;;;8.20;66.41
75401;BME280;63974;47.538;18.972;2023-02-24T01:45:53;99932.78;;;8.12;66.53
75401;BME280;63974;47.538;18.972;2023-02-24T01:49:08;99922.44;;;7.96;66.67
75401;BME280;63974;47.538;18.972;2023-02-24T01:52:16;99919.69;;;8.06;67.23
75401;BME280;63974;47.538;18.972;2023-02-24T01:55:27;99920.69;;;8.29;66.44
75401;BME280;63974;47.538;18.972;2023-02-24T01:58:33;99919.06;;;8.20;66.38
75401;BME280;63974;47.538;18.972;2023-02-24T02:01:39;99918.75;;;7.99;67.02
75401;BME280;63974;47.538;18.972;2023-02-24T02:04:55;99918.91;;;8.05;67.16
75401;BME280;63974;47.538;18.972;2023-02-24T02:08:00;99909.22;;;8.15;66.73
75401;BME280;63974;47.538;18.972;2023-02-24T02:11:08;99915.03;;;8.17;67.11
75401;BME280;63974;47.538;18.972;2023-02-24T02:14:11;99911.94;;;8.14;67.02
75401;BME280;63974;47.538;18.972;2023-02-24T02:24:22;99911.31;;;8.20;67.29
75401;BME280;63974;47.538;18.972;2023-02-24T02:37:33;99902.03;;;7.53;69.08
75401;BME280;63974;47.538;18.972;2023-02-24T02:40:52;99896.75;;;7.79;68.24
75401;BME280;63974;47.538;18.972;2023-02-24T02:47:29;99900.78;;;7.97;68.04
75401;BME280;63974;47.538;18.972;2023-02-24T02:50:55;99892.88;;;7.99;67.97
75401;BME280;63974;47.538;18.972;2023-02-24T02:57:16;99884.78;;;7.94;67.96
75401;BME280;63974;47.538;18.972;2023-02-24T03:00:25;99891.44;;;7.80;67.96
75401;BME280;63974;47.538;18.972;2023-02-24T03:03:33;99888.03;;;7.64;68.95
75401;BME280;63974;47.538;18.972;2023-02-24T03:06:52;99879.13;;;7.74;68.63
75401;BME280;63974;47.538;18.972;2023-02-24T03:10:02;99881.09;;;7.80;68.46
75401;BME280;63974;47.538;18.972;2023-02-24T03:13:12;99882.22;;;7.86;68.76
75401;BME280;63974;47.538;18.972;2023-02-24T03:16:23;99877.34;;;7.83;68.20
75401;BME280;63974;47.538;18.972;2023-02-24T03:19:31;99880.91;;;7.82;68.46
75401;BME280;63974;47.538;18.972;2023-02-24T03:22:42;99880.25;;;7.72;68.76
75401;BME280;63974;47.538;18.972;2023-02-24T03:25:59;99883.34;;;7.75;68.88
75401;BME280;63974;47.538;18.972;2023-02-24T03:29:21;99878.00;;;7.77;68.77
75401;BME280;63974;47.538;18.972;2023-02-24T03:32:49;99873.19;;;7.74;68.84
75401;BME280;63974;47.538;18.972;2023-02-24T03:35:58;99881.38;;;7.77;68.63
75401;BME280;63974;47.538;18.972;2023-02-24T03:39:05;99883.81;;;7.79;68.61
75401;BME280;63974;47.538;18.972;2023-02-24T03:42:19;99883.50;;;7.82;68.13
75401;BME280;63974;47.538;18.972;2023-02-24T03:45:23;99873.00;;;7.75;67.77
75401;BME280;63974;47.538;18.972;2023-02-24T03:48:31;99882.69;;;7.73;67.93
75401;BME280;63974;47.538;18.972;2023-02-24T03:51:34;99871.84;;;7.70;67.78
75401;BME280;63974;47.538;18.972;2023-02-24T03:58:17;99871.19;;;7.60;68.04
75401;BME280;63974;47.538;18.972;2023-02-24T04:02:04;99864.94;;;7.70;68.01
75401;BME280;63974;47.538;18.972;2023-02-24T04:05:19;99863.66;;;7.66;68.06
75401;BME280;63974;47.538;18.972;2023-02-24T04:08:42;99866.53;;;7.71;67.89
75401;BME280;63974;47.538;18.972;2023-02-24T04:15:46;99864.09;;;7.70;68.23
75401;BME280;63974;47.538;18.972;2023-02-24T04:18:51;99857.50;;;7.67;68.33
75401;BME280;63974;47.538;18.972;2023-02-24T04:21:54;99858.47;;;7.66;68.53
75401;BME280;63974;47.538;18.972;2023-02-24T04:25:02;99857.31;;;7.69;68.25
75401;BME280;63974;47.538;18.972;2023-02-24T04:28:08;99843.28;;;7.63;68.80
75401;BME280;63974;47.538;18.972;2023-02-24T04:31:15;99839.41;;;7.67;68.65
75401;BME280;63974;47.538;18.972;2023-02-24T04:34:20;99836.66;;;7.61;68.79
75401;BME280;63974;47.538;18.972;2023-02-24T04:37:23;99829.06;;;7.43;69.47
75401;BME280;63974;47.538;18.972;2023-02-24T04:40:26;99827.63;;;7.49;69.05
75401;BME280;63974;47.538;18.972;2023-02-24T04:43:29;99827.44;;;7.50;68.92
75401;BME280;63974;47.538;18.972;2023-02-24T04:46:32;99829.56;;;7.63;68.57
75401;BME280;63974;47.538;18.972;2023-02-24T04:49:35;99826.34;;;7.61;69.13
75401;BME280;63974;47.538;18.972;2023-02-24T04:52:38;99812.91;;;7.65;68.81
75401;BME280;63974;47.538;18.972;2023-02-24T04:55:45;99816.31;;;7.58;69.22
75401;BME280;63974;47.538;18.972;2023-02-24T04:58:51;99814.84;;;7.31;69.71
75401;BME280;63974;47.538;18.972;2023-02-24T05:01:54;99813.69;;;7.34;69.66
75401;BME280;63974;47.538;18.972;2023-02-24T05:04:57;99814.03;;;7.47;69.55
75401;BME280;63974;47.538;18.972;2023-02-24T05:08:03;99806.78;;;7.50;69.46
75401;BME280;63974;47.538;18.972;2023-02-24T05:11:14;99802.75;;;7.56;69.49
75401;BME280;63974;47.538;18.972;2023-02-24T05:14:21;99808.22;;;7.45;69.40
75401;BME280;63974;47.538;18.972;2023-02-24T05:17:24;99804.66;;;7.30;69.93
75401;BME280;63974;47.538;18.972;2023-02-24T05:20:27;99800.97;;;7.32;70.01
75401;BME280;63974;47.538;18.972;2023-02-24T05:23:49;99798.06;;;7.35;69.82
75401;BME280;63974;47.538;18.972;2023-02-24T05:26:54;99802.91;;;7.30;70.03
75401;BME280;63974;47.538;18.972;2023-02-24T05:30:00;99801.59;;;7.26;69.71
75401;BME280;63974;47.538;18.972;2023-02-24T05:33:05;99798.50;;;7.07;70.67
75401;BME280;63974;47.538;18.972;2023-02-24T05:36:11;99794.50;;;7.28;70.00
75401;BME280;63974;47.538;18.972;2023-02-24T05:39:18;99800.31;;;7.30;69.98
75401;BME280;63974;47.538;18.972;2023-02-24T05:42:21;99789.34;;;7.20;70.57
75401;BME280;63974;47.538;18.972;2023-02-24T05:45:24;99799.50;;;7.30;70.16
75401;BME280;63974;47.538;18.972;2023-02-24T05:48:32;99798.69;;;7.29;70.30
75401;BME280;63974;47.538;18.972;2023-02-24T05:51:37;99799.53;;;7.54;69.53
75401;BME280;63974;47.538;18.972;2023-02-24T05:54:41;99801.28;;;7.53;69.59
75401;BME280;63974;47.538;18.972;2023-02-24T05:57:45;99797.91;;;7.61;69.13
75401;BME280;63974;47.538;18.972;2023-02-24T06:00:48;99795.81;;;7.56;69.98
75401;BME280;63974;47.538;18.972;2023-02-24T06:03:51;99795.34;;;7.61;70.45
75401;BME280;63974;47.538;18.972;2023-02-24T06:06:55;99793.06;;;7.66;70.37
75401;BME280;63974;47.538;18.972;2023-02-24T06:10:00;99789.19;;;7.78;70.04
75401;BME280;63974;47.538;18.972;2023-02-24T06:13:03;99789.81;;;7.80;70.29
75401;BME280;63974;47.538;18.972;2023-02-24T06:16:08;99787.03;;;7.97;69.54
75401;BME280;63974;47.538;18.972;2023-02-24T06:19:14;99796.25;;;8.00;69.74
75401;BME280;63974;47.538;18.972;2023-02-24T06:22:21;99788.97;;;8.11;69.72
75401;BME280;63974;47.538;18.972;2023-02-24T06:25:25;99792.66;;;8.17;69.69
75401;BME280;63974;47.538;18.972;2023-02-24T06:28:31;99788.78;;;8.21;69.63
75401;BME280;63974;47.538;18.972;2023-02-24T06:31:35;99797.66;;;8.26;69.87
75401;BME280;63974;47.538;18.972;2023-02-24T06:34:38;99800.09;;;8.28;70.04
75401;BME280;63974;47.538;18.972;2023-02-24T06:37:41;99797.19;;;8.31;70.17
75401;BME280;63974;47.538;18.972;2023-02-24T06:40:45;99799.59;;;8.32;70.38
75401;BME280;63974;47.538;18.972;2023-02-24T06:43:50;99803.47;;;8.36;70.31
75401;BME280;63974;47.538;18.972;2023-02-24T06:46:54;99769.69;;;8.30;69.98
75401;BME280;63974;47.538;18.972;2023-02-24T06:49:57;99799.41;;;8.42;70.17
75401;BME280;63974;47.538;18.972;2023-02-24T06:53:00;99805.84;;;8.54;69.67
75401;BME280;63974;47.538;18.972;2023-02-24T06:56:05;99792.41;;;8.58;69.92
75401;BME280;63974;47.538;18.972;2023-02-24T06:59:16;99792.88;;;8.62;69.71
75401;BME280;63974;47.538;18.972;2023-02-24T07:02:40;99798.19;;;8.68;69.41
75401;BME280;63974;47.538;18.972;2023-02-24T07:05:48;99795.81;;;8.89;68.86
75401;BME280;63974;47.538;18.972;2023-02-24T07:09:00;99792.81;;;9.00;68.26
75401;BME280;63974;47.538;18.972;2023-02-24T07:12:04;99788.25;;;9.10;68.09
75401;BME280;63974;47.538;18.972;2023-02-24T07:15:07;99777.56;;;9.13;67.75
75401;BME280;63974;47.538;18.972;2023-02-24T07:18:10;99783.13;;;9.02;68.22
75401;BME280;63974;47.538;18.972;2023-02-24T07:21:16;99782.56;;;9.14;67.63
75401;BME280;63974;47.538;18.972;2023-02-24T07:24:20;99785.59;;;9.18;67.73
75401;BME280;63974;47.538;18.972;2023-02-24T07:27:26;99788.34;;;9.16;67.97
75401;BME280;63974;47.538;18.972;2023-02-24T07:30:30;99786.16;;;9.05;68.26
75401;BME280;63974;47.538;18.972;2023-02-24T07:33:44;99781.31;;;9.02;68.55
75401;BME280;63974;47.538;18.972;2023-02-24T07:36:48;99774.13;;;8.90;69.21
75401;BME280;63974;47.538;18.972;2023-02-24T07:39:50;99770.44;;;8.84;69.52
75401;BME280;63974;47.538;18.972;2023-02-24T07:42:53;99768.34;;;9.10;68.75
75401;BME280;63974;47.538;18.972;2023-02-24T07:46:07;99764.50;;;9.29;68.30
75401;BME280;63974;47.538;18.972;2023-02-24T07:49:12;99764.72;;;9.42;68.18
75401;BME280;63974;47.538;18.972;2023-02-24T07:52:16;99762.06;;;9.50;68.15
75401;BME280;63974;47.538;18.972;2023-02-24T07:55:19;99758.28;;;9.52;67.84
75401;BME280;63974;47.538;18.972;2023-02-24T07:58:22;99748.03;;;9.59;68.11
75401;BME280;63974;47.538;18.972;2023-02-24T08:01:26;99750.66;;;9.73;67.09
75401;BME280;63974;47.538;18.972;2023-02-24T08:04:30;99749.00;;;9.95;67.04
75401;BME280;63974;47.538;18.972;2023-02-24T08:07:34;99740.34;;;10.17;66.02
75401;BME280;63974;47.538;18.972;2023-02-24T08:10:39;99740.34;;;10.17;65.81
75401;BME280;63974;47.538;18.972;2023-02-24T08:13:42;99736.78;;;10.18;66.05
75401;BME280;63974;47.538;18.972;2023-02-24T08:16:49;99734.19;;;10.32;65.45
75401;BME280;63974;47.538;18.972;2023-02-24T08:19:54;99731.38;;;10.34;65.65
75401;BME280;63974;47.538;18.972;2023-02-24T08:23:18;99724.41;;;10.49;65.48
75401;BME280;63974;47.538;18.972;2023-02-24T08:26:25;99712.06;;;10.36;66.06
75401;BME280;63974;47.538;18.972;2023-02-24T08:29:33;99715.81;;;10.48;65.79
75401;BME280;63974;47.538;18.972;2023-02-24T08:32:42;99715.03;;;10.69;65.24
75401;BME280;63974;47.538;18.972;2023-02-24T08:35:51;99712.84;;;10.87;64.43
75401;BME280;63974;47.538;18.972;2023-02-24T08:38:54;99714.41;;;11.02;64.32
75401;BME280;63974;47.538;18.972;2023-02-24T08:42:01;99713.22;;;11.25;63.89
75401;BME280;63974;47.538;18.972;2023-02-24T08:45:04;99698.13;;;11.35;63.16
75401;BME280;63974;47.538;18.972;2023-02-24T08:48:07;99695.53;;;11.56;62.30
75401;BME280;63974;47.538;18.972;2023-02-24T08:51:26;99699.84;;;11.77;62.08
75401;BME280;63974;47.538;18.972;2023-02-24T08:54:30;99693.00;;;12.03;60.84
75401;BME280;63974;47.538;18.972;2023-02-24T08:57:33;99686.44;;;12.14;59.16
75401;BME280;63974;47.538;18.972;2023-02-24T09:00:37;99687.13;;;12.29;58.78
75401;BME280;63974;47.538;18.972;2023-02-24T09:03:56;99689.94;;;12.40;58.38
75401;BME280;63974;47.538;18.972;2023-02-24T09:06:59;99690.44;;;12.63;57.91
75401;BME280;63974;47.538;18.972;2023-02-24T09:10:16;99678.25;;;12.70;56.68
75401;BME280;63974;47.538;18.972;2023-02-24T09:13:20;99683.47;;;12.77;56.71
75401;BME280;63974;47.538;18.972;2023-02-24T09:16:23;99678.88;;;12.85;56.73
75401;BME280;63974;47.538;18.972;2023-02-24T09:22:47;99668.50;;;13.24;55.82
75401;BME280;63974;47.538;18.972;2023-02-24T09:26:06;99652.06;;;13.30;54.64
75401;BME280;63974;47.538;18.972;2023-02-24T09:29:12;99660.50;;;13.38;54.87
75401;BME280;63974;47.538;18.972;2023-02-24T09:32:35;99653.63;;;13.63;53.81
75401;BME280;63974;47.538;18.972;2023-02-24T09:35:38;99649.59;;;13.74;53.03
75401;BME280;63974;47.538;18.972;2023-02-24T09:38:51;99655.22;;;13.71;52.72
75401;BME280;63974;47.538;18.972;2023-02-24T09:42:10;99638.53;;;13.85;52.92
75401;BME280;63974;47.538;18.972;2023-02-24T09:45:19;99638.34;;;13.86;53.24
75401;BME280;63974;47.538;18.972;2023-02-24T09:48:41;99638.59;;;13.59;53.29
75401;BME280;63974;47.538;18.972;2023-02-24T09:51:45;99633.22;;;13.28;54.06
75401;BME280;63974;47.538;18.972;2023-02-24T09:54:54;99639.44;;;13.40;54.15
75401;BME280;63974;47.538;18.972;2023-02-24T10:01:25;99631.50;;;13.85;53.20
75401;BME280;63974;47.538;18.972;2023-02-24T10:04:51;99628.53;;;13.75;53.20
75401;BME280;63974;47.538;18.972;2023-02-24T10:07:56;99617.88;;;13.83;53.28
75401;BME280;63974;47.538;18.972;2023-02-24T10:11:00;99623.03;;;13.96;52.62
75401;BME280;63974;47.538;18.972;2023-02-24T10:14:11;99621.63;;;14.00;52.39
75401;BME280;63974;47.538;18.972;2023-02-24T10:17:23;99615.06;;;14.35;51.58
75401;BME280;63974;47.538;18.972;2023-02-24T10:20:31;99611.59;;;14.48;51.64
75401;BME280;63974;47.538;18.972;2023-02-24T10:27:10;99599.00;;;14.69;50.79
75401;BME280;63974;47.538;18.972;2023-02-24T10:33:44;99582.88;;;14.48;50.73
75401;BME280;63974;47.538;18.972;2023-02-24T10:36:47;99572.75;;;14.51;50.14
75401;BME280;63974;47.538;18.972;2023-02-24T10:39:59;99567.56;;;14.14;50.42
75401;BME280;63974;47.538;18.972;2023-02-24T10:43:19;99557.91;;;14.14;50.08
75401;BME280;63974;47.538;18.972;2023-02-24T10:46:31;99552.13;;;14.06;49.53
75401;BME280;63974;47.538;18.972;2023-02-24T10:49:46;99552.13;;;14.06;50.36
75401;BME280;63974;47.538;18.972;2023-02-24T10:53:16;99539.25;;;14.04;50.03
75401;BME280;63974;47.538;18.972;2023-02-24T10:56:41;99534.69;;;14.00;50.27
75401;BME280;63974;47.538;18.972;2023-02-24T11:03:11;99527.50;;;13.95;50.89
75401;BME280;63974;47.538;18.972;2023-02-24T11:06:34;99520.31;;;14.22;50.29
75401;BME280;63974;47.538;18.972;2023-02-24T11:09:43;99520.31;;;14.53;49.44
75401;BME280;63974;47.538;18.972;2023-02-24T11:12:54;99506.72;;;14.69;48.65
75401;BME280;63974;47.538;18.972;2023-02-24T11:16:17;99493.81;;;14.74;48.14
75401;BME280;63974;47.538;18.972;2023-02-24T11:19:44;99487.09;;;14.84;48.08
75401;BME280;63974;47.538;18.972;2023-02-24T11:22:50;99473.31;;;14.95;47.61
75401;BME280;63974;47.538;18.972;2023-02-24T11:26:21;99446.28;;;15.01;46.87
75401;BME280;63974;47.538;18.972;2023-02-24T11:29:47;99457.34;;;15.21;46.12
75401;BME280;63974;47.538;18.972;2023-02-24T11:39:55;99455.41;;;15.35;46.95
75401;BME280;63974;47.538;18.972;2023-02-24T11:43:13;99452.06;;;15.46;46.33
75401;BME280;63974;47.538;18.972;2023-02-24T11:46:46;99441.53;;;15.52;45.98
75401;BME280;63974;47.538;18.972;2023-02-24T11:50:02;99443.31;;;15.52;46.33
75401;BME280;63974;47.538;18.972;2023-02-24T11:56:39;99444.00;;;15.76;45.52
75401;BME280;63974;47.538;18.972;2023-02-24T11:59:49;99425.84;;;15.93;45.10
75401;BME280;63974;47.538;18.972;2023-02-24T12:03:07;99434.66;;;15.80;45.34
75401;BME280;63974;47.538;18.972;2023-02-24T12:06:41;99420.25;;;15.60;46.23
75401;BME280;63974;47.538;18.972;2023-02-24T12:09:49;99421.91;;;15.73;46.58
75401;BME280;63974;47.538;18.972;2023-02-24T12:13:04;99414.75;;;15.79;45.48
75401;BME280;63974;47.538;18.972;2023-02-24T12:19:18;99409.09;;;15.82;45.94
75401;BME280;63974;47.538;18.972;2023-02-24T12:22:31;99408.94;;;15.77;46.15
75401;BME280;63974;47.538;18.972;2023-02-24T12:32:52;99387.06;;;16.13;45.50
75401;BME280;63974;47.538;18.972;2023-02-24T12:36:07;99391.41;;;16.07;45.24
75401;BME280;63974;47.538;18.972;2023-02-24T12:39:20;99398.84;;;15.92;45.60
75401;BME280;63974;47.538;18.972;2023-02-24T12:42:28;99386.47;;;15.88;45.96
75401;BME280;63974;47.538;18.972;2023-02-24T12:49:18;99380.88;;;15.96;46.02
75401;BME280;63974;47.538;18.972;2023-02-24T12:52:36;99384.00;;;15.75;46.07
75401;BME280;63974;47.538;18.972;2023-02-24T12:59:16;99351.41;;;15.89;46.53
75401;BME280;63974;47.538;18.972;2023-02-24T13:06:01;99356.19;;;16.03;45.55
75401;BME280;63974;47.538;18.972;2023-02-24T13:12:35;99341.03;;;15.94;46.07
75401;BME280;63974;47.538;18.972;2023-02-24T13:15:52;99334.53;;;15.85;45.60
75401;BME280;63974;47.538;18.972;2023-02-24T13:19:14;99334.47;;;16.03;44.93
75401;BME280;63974;47.538;18.972;2023-02-24T13:22:27;99330.34;;;15.95;44.94
75401;BME280;63974;47.538;18.972;2023-02-24T13:25:32;99321.56;;;16.01;45.02
75401;BME280;63974;47.538;18.972;2023-02-24T13:28:36;99329.16;;;15.68;45.72
75401;BME280;63974;47.538;18.972;2023-02-24T13:31:43;99333.03;;;15.66;46.38
75401;BME280;63974;47.538;18.972;2023-02-24T13:34:47;99319.88;;;15.43;45.70
75401;BME280;63974;47.538;18.972;2023-02-24T13:37:53;99319.78;;;15.50;46.30
75401;BME280;63974;47.538;18.972;2023-02-24T13:44:29;99324.56;;;15.93;45.87
75401;BME280;63974;47.538;18.972;2023-02-24T13:51:14;99324.75;;;15.92;46.16
75401;BME280;63974;47.538;18.972;2023-02-24T13:58:25;99316.44;;;15.83;46.31
75401;BME280;63974;47.538;18.972;2023-02-24T14:01:42;99310.81;;;15.68;46.54
75401;BME280;63974;47.538;18.972;2023-02-24T14:04:51;99322.31;;;15.56;46.61
75401;BME280;63974;47.538;18.972;2023-02-24T14:07:55;99326.78;;;15.38;47.45
75401;BME280;63974;47.538;18.972;2023-02-24T14:10:59;99319.63;;;15.33;47.55
75401;BME280;63974;47.538;18.972;2023-02-24T14:14:03;99320.69;;;15.26;47.69
75401;BME280;63974;47.538;18.972;2023-02-24T14:17:39;99316.66;;;15.12;48.22
75401;BME280;63974;47.538;18.972;2023-02-24T14:20:40;99313.50;;;15.21;48.47
75401;BME280;63974;47.538;18.972;2023-02-24T14:23:54;99303.50;;;15.18;49.08
75401;BME280;63974;47.538;18.972;2023-02-24T14:26:58;99304.53;;;14.99;48.98
75401;BME280;63974;47.538;18.972;2023-02-24T14:30:02;99292.22;;;14.88;49.47
75401;BME280;63974;47.538;18.972;2023-02-24T14:33:06;99292.00;;;14.72;49.88
75401;BME280;63974;47.538;18.972;2023-02-24T14:36:22;99297.69;;;14.69;50.12
75401;BME280;63974;47.538;18.972;2023-02-24T14:39:28;99294.00;;;14.58;50.56
75401;BME280;63974;47.538;18.972;2023-02-24T14:42:32;99290.22;;;14.54;50.79
75401;BME280;63974;47.538;18.972;2023-02-24T14:45:34;99289.41;;;14.54;50.58
75401;BME280;63974;47.538;18.972;2023-02-24T14:48:37;99283.81;;;14.50;50.78
75401;BME280;63974;47.538;18.972;2023-02-24T14:51:40;99275.53;;;14.53;50.60
75401;BME280;63974;47.538;18.972;2023-02-24T14:54:54;99284.31;;;14.59;50.50
75401;BME280;63974;47.538;18.972;2023-02-24T15:01:19;99269.25;;;14.61;50.15
75401;BME280;63974;47.538;18.972;2023-02-24T15:07:29;99258.28;;;14.52;50.42
75401;BME280;63974;47.538;18.972;2023-02-24T15:10:33;99268.59;;;14.47;51.01
75401;BME280;63974;47.538;18.972;2023-02-24T15:13:49;99262.56;;;14.47;50.85
75401;BME280;63974;47.538;18.972;2023-02-24T15:17:00;99251.41;;;14.40;51.10
75401;BME280;63974;47.538;18.972;2023-02-24T15:23:34;99251.69;;;14.32;51.18
75401;BME280;63974;47.538;18.972;2023-02-24T15:26:37;99246.91;;;14.29;51.52
75401;BME280;63974;47.538;18.972;2023-02-24T15:29:42;99242.50;;;14.29;51.27
75401;BME280;63974;47.538;18.972;2023-02-24T15:32:45;99238.78;;;14.37;51.22
75401;BME280;63974;47.538;18.972;2023-02-24T15:35:55;99242.84;;;14.33;51.56
75401;BME280;63974;47.538;18.972;2023-02-24T15:39:04;99231.63;;;14.32;51.41
75401;BME280;63974;47.538;18.972;2023-02-24T15:42:20;99236.66;;;14.27;51.37
75401;BME280;63974;47.538;18.972;2023-02-24T15:45:28;99230.50;;;14.22;51.99
75401;BME280;63974;47.538;18.972;2023-02-24T15:48:31;99221.94;;;14.15;51.86
75401;BME280;63974;47.538;18.972;2023-02-24T15:51:40;99229.56;;;14.16;52.38
75401;BME280;63974;47.538;18.972;2023-02-24T15:54:45;99222.38;;;14.12;52.28
75401;BME280;63974;47.538;18.972;2023-02-24T15:57:56;99220.16;;;14.09;52.48
75401;BME280;63974;47.538;18.972;2023-02-24T16:01:01;99220.47;;;14.01;52.94
75401;BME280;63974;47.538;18.972;2023-02-24T16:04:04;99219.34;;;13.90;53.11
75401;BME280;63974;47.538;18.972;2023-02-24T16:07:23;99216.59;;;13.85;53.62
75401;BME280;63974;47.538;18.972;2023-02-24T16:10:28;99208.84;;;13.79;53.93
75401;BME280;63974;47.538;18.972;2023-02-24T16:13:32;99213.09;;;13.73;53.75
75401;BME280;63974;47.538;18.972;2023-02-24T16:16:34;99213.94;;;13.67;54.07
75401;BME280;63974;47.538;18.972;2023-02-24T16:19:37;99200.75;;;13.62;54.11
75401;BME280;63974;47.538;18.972;2023-02-24T16:22:40;99217.56;;;13.66;54.50
75401;BME280;63974;47.538;18.972;2023-02-24T16:25:44;99210.03;;;13.58;54.46
75401;BME280;63974;47.538;18.972;2023-02-24T16:28:55;99204.06;;;13.51;54.38
75401;BME280;63974;47.538;18.972;2023-02-24T16:31:58;99212.78;;;13.63;53.98
75401;BME280;63974;47.538;18.972;2023-02-24T16:35:01;99204.66;;;13.53;54.31
75401;BME280;63974;47.538;18.972;2023-02-24T16:38:04;99197.84;;;13.52;54.55
75401;BME280;63974;47.538;18.972;2023-02-24T16:41:09;99206.63;;;13.58;53.24
75401;BME280;63974;47.538;18.972;2023-02-24T16:44:11;99209.47;;;13.56;53.63
75401;BME280;63974;47.538;18.972;2023-02-24T16:47:22;99208.00;;;13.60;53.33
75401;BME280;63974;47.538;18.972;2023-02-24T16:50:30;99200.97;;;13.61;53.20
75401;BME280;63974;47.538;18.972;2023-02-24T16:53:35;99203.81;;;13.59;53.31
75401;BME280;63974;47.538;18.972;2023-02-24T16:56:37;99207.69;;;13.50;53.64
75401;BME280;63974;47.538;18.972;2023-02-24T16:59:41;99203.91;;;13.46;53.48
75401;BME280;63974;47.538;18.972;2023-02-24T17:02:44;99200.28;;;13.23;54.36
75401;BME280;63974;47.538;18.972;2023-02-24T17:05:48;99208.56;;;13.14;54.78
75401;BME280;63974;47.538;18.972;2023-02-24T17:08:51;99215.56;;;13.13;54.88
75401;BME280;63974;47.538;18.972;2023-02-24T17:11:54;99213.97;;;13.12;55.31
75401;BME280;63974;47.538;18.972;2023-02-24T17:14:57;99204.81;;;13.10;55.08
75401;BME280;63974;47.538;18.972;2023-02-24T17:18:00;99200.66;;;13.02;55.39
75401;BME280;63974;47.538;18.972;2023-02-24T17:21:03;99204.81;;;13.10;55.71
75401;BME280;63974;47.538;18.972;2023-02-24T17:24:13;99200.22;;;13.05;55.48
75401;BME280;63974;47.538;18.972;2023-02-24T17:27:17;99200.03;;;13.00;55.69
75401;BME280;63974;47.538;18.972;2023-02-24T17:30:26;99195.53;;;13.14;55.20
75401;BME280;63974;47.538;18.972;2023-02-24T17:33:30;99187.91;;;13.12;55.50
75401;BME280;63974;47.538;18.972;2023-02-24T17:36:33;99182.19;;;13.04;55.66
75401;BME280;63974;47.538;18.972;2023-02-24T17:39:36;99163.97;;;12.97;55.73
75401;BME280;63974;47.538;18.972;2023-02-24T17:42:40;99167.97;;;13.00;56.24
75401;BME280;63974;47.538;18.972;2023-02-24T17:45:44;99166.44;;;12.86;56.16
75401;BME280;63974;47.538;18.972;2023-02-24T17:48:47;99172.28;;;12.81;56.28
75401;BME280;63974;47.538;18.972;2023-02-24T17:51:50;99169.13;;;12.73;56.90
75401;BME280;63974;47.538;18.972;2023-02-24T17:54:54;99167.72;;;12.70;56.74
75401;BME280;63974;47.538;18.972;2023-02-24T17:57:58;99168.97;;;12.61;57.08
75401;BME280;63974;47.538;18.972;2023-02-24T18:01:03;99172.44;;;12.55;57.24
75401;BME280;63974;47.538;18.972;2023-02-24T18:04:10;99165.69;;;12.41;57.47
75401;BME280;63974;47.538;18.972;2023-02-24T18:07:16;99162.91;;;12.36;57.81
75401;BME280;63974;47.538;18.972;2023-02-24T18:10:19;99159.91;;;12.33;57.91
75401;BME280;63974;47.538;18.972;2023-02-24T18:13:22;99164.75;;;12.29;58.00